Time;durP1;ratioP1;P1;durP2;ratioP2;P2;SDS_P1;SDS_P2;PMS_P1;PMS_P2;Temp;Humidity;BMP_temperature;BMP_pressure;BME280_temperature;BME280_humidity;BME280_pressure;Samples;Min_cycle;Max_cycle;Signal;HPM_P1;HPM_P2
2023/09/30 00:02:13;;;;;;;0.20;0.20;;;;;;;;;;4964646;28;20459;-64
2023/09/30 00:04:39;;;;;;;0.30;0.30;;;;;;;;;;4970193;28;20034;-62
2023/09/30 00:07:05;;;;;;;0.20;0.20;;;;;;;;;;4969622;28;20030;-62
2023/09/30 00:09:30;;;;;;;0.30;0.30;;;;;;;;;;4968850;28;20035;-62
2023/09/30 00:11:55;;;;;;;0.30;0.30;;;;;;;;;;4971174;28;20836;-63
2023/09/30 00:14:21;;;;;;;0.20;0.20;;;;;;;;;;4970817;28;20050;-63
2023/09/30 00:16:46;;;;;;;0.22;0.22;;;;;;;;;;4968083;28;20113;-63
2023/09/30 00:19:13;;;;;;;0.30;0.30;;;;;;;;;;4972071;28;20057;-63
2023/09/30 00:21:38;;;;;;;0.30;0.30;;;;;;;;;;4973611;28;20707;-63
2023/09/30 00:24:04;;;;;;;0.20;0.20;;;;;;;;;;4971741;28;20030;-62
2023/09/30 00:26:29;;;;;;;0.30;0.30;;;;;;;;;;4972814;28;20039;-67
2023/09/30 00:28:55;;;;;;;0.20;0.20;;;;;;;;;;4968541;28;20042;-66
2023/09/30 00:31:20;;;;;;;0.30;0.30;;;;;;;;;;4968512;28;20038;-64
2023/09/30 00:33:47;;;;;;;0.20;0.20;;;;;;;;;;4974631;28;20385;-65
2023/09/30 00:36:12;;;;;;;0.20;0.20;;;;;;;;;;4964123;28;20030;-63
2023/09/30 00:38:38;;;;;;;0.30;0.30;;;;;;;;;;4982582;28;20070;-63
2023/09/30 00:41:03;;;;;;;0.30;0.30;;;;;;;;;;4969943;28;20030;-63
2023/09/30 00:43:29;;;;;;;0.30;0.30;;;;;;;;;;4965941;28;20035;-62
2023/09/30 00:46:01;;;;;;;0.30;0.30;;;;;;;;;;4958514;28;20042;-63
2023/09/30 00:48:27;;;;;;;0.30;0.30;;;;;;;;;;4967721;28;20260;-63
2023/09/30 00:50:52;;;;;;;0.20;0.20;;;;;;;;;;4970698;28;20165;-64
2023/09/30 00:53:18;;;;;;;0.30;0.30;;;;;;;;;;4967765;28;20035;-65
2023/09/30 00:55:44;;;;;;;0.20;0.20;;;;;;;;;;4972225;28;20034;-66
2023/09/30 00:58:09;;;;;;;0.30;0.30;;;;;;;;;;4974567;28;20023;-67
2023/09/30 01:00:35;;;;;;;0.30;0.30;;;;;;;;;;4972473;28;20042;-68
2023/09/30 01:03:03;;;;;;;0.20;0.20;;;;;;;;;;4972951;28;20054;-66
2023/09/30 01:05:30;;;;;;;0.30;0.30;;;;;;;;;;4967444;28;20058;-62
2023/09/30 01:07:55;;;;;;;0.20;0.20;;;;;;;;;;4974445;28;20405;-64
2023/09/30 01:10:20;;;;;;;0.20;0.20;;;;;;;;;;4972370;28;20030;-64
2023/09/30 01:12:46;;;;;;;0.28;0.28;;;;;;;;;;4977351;28;20627;-63
2023/09/30 01:15:12;;;;;;;0.30;0.30;;;;;;;;;;4973372;28;20042;-63
2023/09/30 01:17:37;;;;;;;0.28;0.28;;;;;;;;;;4970998;28;20041;-65
2023/09/30 01:20:05;;;;;;;0.30;0.30;;;;;;;;;;4971125;28;20046;-62
2023/09/30 01:22:31;;;;;;;0.28;0.28;;;;;;;;;;4975488;28;20458;-63
2023/09/30 01:24:56;;;;;;;0.20;0.20;;;;;;;;;;4969568;28;20041;-62
2023/09/30 01:27:21;;;;;;;0.20;0.20;;;;;;;;;;4967752;28;20141;-63
2023/09/30 01:29:47;;;;;;;0.30;0.30;;;;;;;;;;4967852;28;20485;-64
2023/09/30 01:32:13;;;;;;;0.30;0.30;;;;;;;;;;4971590;28;20797;-62
2023/09/30 01:34:39;;;;;;;0.30;0.30;;;;;;;;;;4973268;28;20066;-62
2023/09/30 01:37:04;;;;;;;0.20;0.20;;;;;;;;;;4970930;28;20130;-61
2023/09/30 01:39:30;;;;;;;0.30;0.30;;;;;;;;;;4959374;28;20035;-62
2023/09/30 01:41:55;;;;;;;0.30;0.30;;;;;;;;;;4971726;28;20042;-62
2023/09/30 01:44:20;;;;;;;0.30;0.30;;;;;;;;;;4973584;28;20039;-64
2023/09/30 01:46:46;;;;;;;0.30;0.30;;;;;;;;;;4976027;28;20073;-65
2023/09/30 01:49:11;;;;;;;0.20;0.20;;;;;;;;;;4972677;28;20122;-62
2023/09/30 01:51:36;;;;;;;0.20;0.20;;;;;;;;;;4970359;28;20034;-66
2023/09/30 01:54:01;;;;;;;0.30;0.30;;;;;;;;;;4971454;28;20400;-64
2023/09/30 01:56:27;;;;;;;0.20;0.20;;;;;;;;;;4969233;28;20046;-66
2023/09/30 01:58:52;;;;;;;0.30;0.30;;;;;;;;;;4958950;28;20030;-64
2023/09/30 02:01:18;;;;;;;0.30;0.30;;;;;;;;;;4964449;28;20065;-66
2023/09/30 02:03:43;;;;;;;0.30;0.30;;;;;;;;;;4970827;28;20528;-64
2023/09/30 02:06:08;;;;;;;0.30;0.30;;;;;;;;;;4965421;28;20393;-62
2023/09/30 02:08:36;;;;;;;0.30;0.30;;;;;;;;;;4966470;28;20094;-64
2023/09/30 02:11:03;;;;;;;0.30;0.30;;;;;;;;;;4965330;28;20027;-63
2023/09/30 02:13:29;;;;;;;0.30;0.30;;;;;;;;;;4971861;28;20048;-63
2023/09/30 02:15:55;;;;;;;0.30;0.30;;;;;;;;;;4969353;28;20260;-62
2023/09/30 02:18:21;;;;;;;0.30;0.30;;;;;;;;;;4963686;28;20660;-64
2023/09/30 02:20:46;;;;;;;0.30;0.30;;;;;;;;;;4970728;28;20031;-64
2023/09/30 02:23:11;;;;;;;0.30;0.30;;;;;;;;;;4972590;28;20030;-62
2023/09/30 02:25:37;;;;;;;0.30;0.30;;;;;;;;;;4968288;28;20041;-64
2023/09/30 02:28:03;;;;;;;0.30;0.30;;;;;;;;;;4971251;28;20105;-66
2023/09/30 02:30:29;;;;;;;0.30;0.30;;;;;;;;;;4970985;28;20101;-62
2023/09/30 02:32:56;;;;;;;0.30;0.30;;;;;;;;;;4971771;28;20502;-62
2023/09/30 02:35:21;;;;;;;0.30;0.30;;;;;;;;;;4970774;28;20031;-63
2023/09/30 02:37:46;;;;;;;0.30;0.30;;;;;;;;;;4971400;28;20399;-63
2023/09/30 02:40:14;;;;;;;0.30;0.30;;;;;;;;;;4972044;28;20091;-62
2023/09/30 02:42:40;;;;;;;0.30;0.30;;;;;;;;;;4970431;28;20420;-65
2023/09/30 02:45:07;;;;;;;0.30;0.30;;;;;;;;;;4972048;28;20473;-64
2023/09/30 02:47:33;;;;;;;0.30;0.30;;;;;;;;;;4972272;28;20180;-64
2023/09/30 02:49:59;;;;;;;0.30;0.30;;;;;;;;;;4962492;28;20169;-62
2023/09/30 02:52:25;;;;;;;0.30;0.30;;;;;;;;;;4972287;28;20033;-64
2023/09/30 02:54:51;;;;;;;0.30;0.30;;;;;;;;;;4970119;28;20027;-64
2023/09/30 02:57:17;;;;;;;0.30;0.30;;;;;;;;;;4967773;28;20440;-63
2023/09/30 02:59:44;;;;;;;0.30;0.30;;;;;;;;;;4963396;28;20026;-63
2023/09/30 03:02:09;;;;;;;0.30;0.30;;;;;;;;;;4969130;28;20034;-64
2023/09/30 03:04:34;;;;;;;0.30;0.30;;;;;;;;;;4968415;28;20046;-62
2023/09/30 03:07:00;;;;;;;0.30;0.30;;;;;;;;;;4972955;28;20031;-62
2023/09/30 03:09:26;;;;;;;0.30;0.30;;;;;;;;;;4968027;28;20031;-63
2023/09/30 03:11:51;;;;;;;0.30;0.30;;;;;;;;;;4973310;28;20221;-63
2023/09/30 03:14:16;;;;;;;0.30;0.30;;;;;;;;;;4970612;28;20037;-64
2023/09/30 03:16:43;;;;;;;0.30;0.30;;;;;;;;;;4969379;28;20045;-63
2023/09/30 03:19:08;;;;;;;0.30;0.30;;;;;;;;;;4972680;28;20031;-64
2023/09/30 03:21:36;;;;;;;0.30;0.30;;;;;;;;;;4969654;28;20042;-63
2023/09/30 03:24:02;;;;;;;0.30;0.30;;;;;;;;;;4970134;28;20766;-62
2023/09/30 03:26:31;;;;;;;0.38;0.38;;;;;;;;;;4970351;28;20121;-63
2023/09/30 03:28:56;;;;;;;0.30;0.30;;;;;;;;;;4973574;28;20109;-65
2023/09/30 03:31:22;;;;;;;0.30;0.30;;;;;;;;;;4973977;28;20096;-63
2023/09/30 03:33:48;;;;;;;0.30;0.30;;;;;;;;;;4969319;28;20100;-63
2023/09/30 03:36:15;;;;;;;0.30;0.30;;;;;;;;;;4972178;28;20362;-62
2023/09/30 03:38:41;;;;;;;0.30;0.30;;;;;;;;;;4970865;28;20034;-66
2023/09/30 03:41:08;;;;;;;0.40;0.40;;;;;;;;;;4971490;28;20034;-64
2023/09/30 03:43:36;;;;;;;0.40;0.40;;;;;;;;;;4968676;28;20038;-62
2023/09/30 03:46:02;;;;;;;0.30;0.30;;;;;;;;;;4965881;28;20050;-62
2023/09/30 03:48:27;;;;;;;0.30;0.30;;;;;;;;;;4966427;28;20034;-62
2023/09/30 03:50:53;;;;;;;0.32;0.32;;;;;;;;;;4972323;28;20035;-63
2023/09/30 03:53:19;;;;;;;0.40;0.40;;;;;;;;;;4970402;28;20066;-63
2023/09/30 03:55:45;;;;;;;0.30;0.30;;;;;;;;;;4972786;28;20062;-61
2023/09/30 03:58:12;;;;;;;0.30;0.30;;;;;;;;;;4959410;28;20078;-61
2023/09/30 04:00:37;;;;;;;0.30;0.30;;;;;;;;;;4969148;28;20094;-62
2023/09/30 04:03:03;;;;;;;0.40;0.40;;;;;;;;;;4970797;28;20058;-64
2023/09/30 04:05:36;;;;;;;0.30;0.30;;;;;;;;;;4969440;28;20040;-62
2023/09/30 04:08:01;;;;;;;0.40;0.40;;;;;;;;;;4973792;28;20070;-62
2023/09/30 04:10:27;;;;;;;0.30;0.30;;;;;;;;;;4970647;28;20066;-63
2023/09/30 04:12:52;;;;;;;0.32;0.32;;;;;;;;;;4977711;28;20141;-63
2023/09/30 04:15:18;;;;;;;0.40;0.40;;;;;;;;;;4973045;28;20092;-63
2023/09/30 04:17:43;;;;;;;0.35;0.35;;;;;;;;;;4972170;28;20381;-63
2023/09/30 04:20:10;;;;;;;0.40;0.40;;;;;;;;;;4970940;28;20089;-61
2023/09/30 04:22:36;;;;;;;0.40;0.40;;;;;;;;;;4974232;28;20061;-61
2023/09/30 04:25:05;;;;;;;0.40;0.40;;;;;;;;;;4972840;28;20045;-62
2023/09/30 04:27:31;;;;;;;0.40;0.40;;;;;;;;;;4971124;28;20440;-62
2023/09/30 04:29:56;;;;;;;0.32;0.32;;;;;;;;;;4973353;28;20667;-62
2023/09/30 04:32:21;;;;;;;0.40;0.40;;;;;;;;;;4972450;28;20034;-64
2023/09/30 04:34:47;;;;;;;0.40;0.40;;;;;;;;;;4970527;28;20058;-65
2023/09/30 04:37:13;;;;;;;0.40;0.40;;;;;;;;;;4966468;28;20030;-66
2023/09/30 04:39:39;;;;;;;0.47;0.47;;;;;;;;;;4971370;28;20031;-61
2023/09/30 04:42:04;;;;;;;0.32;0.32;;;;;;;;;;4973318;28;20070;-63
2023/09/30 04:44:30;;;;;;;0.40;0.40;;;;;;;;;;4970897;28;20039;-64
2023/09/30 04:46:56;;;;;;;0.40;0.40;;;;;;;;;;4972263;28;20085;-63
2023/09/30 04:49:21;;;;;;;0.32;0.32;;;;;;;;;;4973300;28;20026;-64
2023/09/30 04:51:49;;;;;;;0.40;0.40;;;;;;;;;;4970134;28;20493;-62
2023/09/30 04:54:14;;;;;;;0.40;0.40;;;;;;;;;;4970697;28;20109;-62
2023/09/30 04:56:39;;;;;;;0.40;0.40;;;;;;;;;;4972732;28;20129;-63
2023/09/30 04:59:05;;;;;;;0.40;0.40;;;;;;;;;;4974991;28;20035;-62
2023/09/30 05:01:30;;;;;;;0.40;0.40;;;;;;;;;;4971442;28;20037;-63
2023/09/30 05:03:55;;;;;;;0.30;0.30;;;;;;;;;;4971324;28;20097;-63
2023/09/30 05:06:21;;;;;;;0.40;0.40;;;;;;;;;;4971599;28;20385;-62
2023/09/30 05:08:47;;;;;;;0.40;0.40;;;;;;;;;;4974420;28;20396;-62
2023/09/30 05:11:13;;;;;;;0.40;0.40;;;;;;;;;;4976524;28;20475;-63
2023/09/30 05:13:38;;;;;;;0.40;0.40;;;;;;;;;;4973328;28;20043;-63
2023/09/30 05:16:04;;;;;;;0.40;0.40;;;;;;;;;;4977923;28;20077;-66
2023/09/30 05:18:29;;;;;;;0.40;0.40;;;;;;;;;;4967545;28;20039;-64
2023/09/30 05:20:55;;;;;;;0.32;0.32;;;;;;;;;;4966077;28;20027;-64
2023/09/30 05:23:20;;;;;;;0.40;0.40;;;;;;;;;;4966904;28;20138;-63
2023/09/30 05:25:45;;;;;;;0.40;0.40;;;;;;;;;;4968281;28;20034;-63
2023/09/30 05:28:11;;;;;;;0.30;0.30;;;;;;;;;;4973463;28;20030;-63
2023/09/30 05:30:37;;;;;;;0.32;0.32;;;;;;;;;;4973671;28;20031;-65
2023/09/30 05:33:03;;;;;;;0.40;0.40;;;;;;;;;;4973501;28;20049;-63
2023/09/30 05:35:29;;;;;;;0.40;0.40;;;;;;;;;;4972573;28;20118;-63
2023/09/30 05:37:54;;;;;;;0.30;0.30;;;;;;;;;;4972149;28;20475;-62
2023/09/30 05:40:25;;;;;;;0.30;0.30;;;;;;;;;;4971477;28;20031;-64
2023/09/30 05:42:54;;;;;;;0.35;0.35;;;;;;;;;;4969009;28;20041;-62
2023/09/30 05:45:23;;;;;;;0.40;0.40;;;;;;;;;;4976245;28;20039;-65
2023/09/30 05:47:48;;;;;;;0.40;0.40;;;;;;;;;;4971722;28;20395;-62
2023/09/30 05:50:16;;;;;;;0.40;0.40;;;;;;;;;;4970677;28;20035;-62
2023/09/30 05:52:41;;;;;;;;;;;;;;;;;;4971582;28;20070;-63
2023/09/30 05:55:06;;;;;;;0.33;0.33;;;;;;;;;;4973229;28;19964;-66
2023/09/30 05:57:32;;;;;;;0.30;0.30;;;;;;;;;;4970332;28;20055;-64
2023/09/30 05:59:57;;;;;;;0.30;0.30;;;;;;;;;;4969293;28;20114;-63
2023/09/30 06:02:23;;;;;;;0.30;0.30;;;;;;;;;;4967721;28;20031;-62
2023/09/30 06:04:50;;;;;;;0.30;0.30;;;;;;;;;;4966960;28;20110;-66
2023/09/30 06:07:16;;;;;;;0.30;0.30;;;;;;;;;;4970298;28;20066;-63
2023/09/30 06:09:41;;;;;;;0.30;0.30;;;;;;;;;;4962246;28;20269;-63
2023/09/30 06:12:07;;;;;;;0.40;0.40;;;;;;;;;;4973287;28;20074;-62
2023/09/30 06:14:32;;;;;;;0.40;0.40;;;;;;;;;;4969989;28;20488;-64
2023/09/30 06:16:58;;;;;;;0.30;0.30;;;;;;;;;;4967682;28;20644;-63
2023/09/30 06:19:25;;;;;;;0.30;0.30;;;;;;;;;;4969507;28;20027;-63
2023/09/30 06:21:51;;;;;;;0.38;0.38;;;;;;;;;;4968651;28;20109;-62
2023/09/30 06:24:16;;;;;;;0.30;0.30;;;;;;;;;;4971595;28;20115;-64
2023/09/30 06:26:41;;;;;;;0.30;0.30;;;;;;;;;;4969404;28;20129;-63
2023/09/30 06:29:07;;;;;;;0.30;0.30;;;;;;;;;;4971203;28;20069;-62
2023/09/30 06:31:33;;;;;;;0.30;0.30;;;;;;;;;;4971292;28;20037;-62
2023/09/30 06:34:00;;;;;;;0.30;0.30;;;;;;;;;;4971675;28;20038;-63
2023/09/30 06:36:25;;;;;;;0.30;0.30;;;;;;;;;;4970230;28;20085;-61
2023/09/30 06:38:52;;;;;;;0.30;0.30;;;;;;;;;;4970214;28;20035;-62
2023/09/30 06:41:18;;;;;;;0.30;0.30;;;;;;;;;;4974026;28;20145;-63
2023/09/30 06:43:43;;;;;;;0.30;0.30;;;;;;;;;;4967624;28;20134;-63
2023/09/30 06:46:12;;;;;;;0.30;0.30;;;;;;;;;;4968168;28;20070;-63
2023/09/30 06:48:40;;;;;;;0.30;0.30;;;;;;;;;;4970187;28;20104;-62
2023/09/30 06:51:06;;;;;;;0.30;0.30;;;;;;;;;;4969430;28;20481;-64
2023/09/30 06:53:31;;;;;;;0.30;0.30;;;;;;;;;;4970952;28;20049;-63
2023/09/30 06:55:56;;;;;;;0.30;0.30;;;;;;;;;;4972046;28;20056;-62
2023/09/30 06:58:22;;;;;;;0.30;0.30;;;;;;;;;;4964915;28;20034;-62
2023/09/30 07:00:48;;;;;;;0.30;0.30;;;;;;;;;;4972570;28;21016;-62
2023/09/30 07:03:15;;;;;;;0.30;0.30;;;;;;;;;;4967424;28;20027;-62
2023/09/30 07:05:40;;;;;;;0.30;0.30;;;;;;;;;;4972992;28;20500;-62
2023/09/30 07:08:05;;;;;;;0.30;0.30;;;;;;;;;;4973580;28;20041;-63
2023/09/30 07:10:31;;;;;;;0.30;0.30;;;;;;;;;;4970833;28;20035;-62
2023/09/30 07:12:57;;;;;;;0.30;0.30;;;;;;;;;;4974186;28;20378;-63
2023/09/30 07:15:22;;;;;;;0.30;0.30;;;;;;;;;;4968506;28;20105;-63
2023/09/30 07:17:47;;;;;;;0.25;0.25;;;;;;;;;;4972955;28;20037;-63
2023/09/30 07:20:13;;;;;;;0.30;0.30;;;;;;;;;;4973727;28;20137;-63
2023/09/30 07:22:38;;;;;;;0.22;0.22;;;;;;;;;;4977218;28;20039;-63
2023/09/30 07:25:04;;;;;;;0.22;0.22;;;;;;;;;;4972710;28;20031;-63
2023/09/30 07:27:29;;;;;;;0.30;0.30;;;;;;;;;;4979042;28;20443;-62
2023/09/30 07:29:55;;;;;;;0.30;0.30;;;;;;;;;;4974749;28;20030;-67
2023/09/30 07:32:23;;;;;;;0.30;0.30;;;;;;;;;;4975366;28;20057;-63
2023/09/30 07:34:48;;;;;;;0.22;0.22;;;;;;;;;;4970326;28;20030;-62
2023/09/30 07:37:14;;;;;;;0.30;0.30;;;;;;;;;;4976099;28;20029;-63
2023/09/30 07:39:39;;;;;;;0.20;0.20;;;;;;;;;;4972976;28;20023;-63
2023/09/30 07:42:04;;;;;;;0.30;0.30;;;;;;;;;;4973038;28;20488;-63
2023/09/30 07:44:30;;;;;;;0.30;0.30;;;;;;;;;;4972483;28;20043;-62
2023/09/30 07:46:57;;;;;;;0.30;0.30;;;;;;;;;;4972088;28;20054;-63
2023/09/30 07:49:24;;;;;;;0.20;0.20;;;;;;;;;;4978175;28;20039;-64
2023/09/30 07:51:49;;;;;;;0.22;0.22;;;;;;;;;;4978303;28;20401;-64
2023/09/30 07:54:14;;;;;;;0.30;0.30;;;;;;;;;;4975429;28;20381;-62
2023/09/30 07:56:40;;;;;;;0.30;0.30;;;;;;;;;;4966107;28;20035;-63
2023/09/30 07:59:05;;;;;;;0.30;0.30;;;;;;;;;;4962033;28;20030;-63
2023/09/30 08:01:31;;;;;;;0.20;0.20;;;;;;;;;;4979875;28;20034;-64
2023/09/30 08:03:56;;;;;;;0.20;0.20;;;;;;;;;;4979418;28;20042;-65
2023/09/30 08:06:21;;;;;;;0.30;0.30;;;;;;;;;;4980149;28;20030;-65
2023/09/30 08:08:47;;;;;;;0.20;0.20;;;;;;;;;;4979853;28;20035;-63
2023/09/30 08:11:12;;;;;;;0.30;0.30;;;;;;;;;;4977571;28;20353;-62
2023/09/30 08:13:38;;;;;;;0.20;0.20;;;;;;;;;;4978851;28;20530;-63
2023/09/30 08:16:03;;;;;;;0.30;0.30;;;;;;;;;;4976185;28;20027;-65
2023/09/30 08:18:28;;;;;;;0.30;0.30;;;;;;;;;;4975188;28;20664;-63
2023/09/30 08:20:54;;;;;;;0.30;0.30;;;;;;;;;;4966122;28;20105;-64
2023/09/30 08:23:19;;;;;;;0.30;0.30;;;;;;;;;;4978915;28;20625;-63
2023/09/30 08:25:44;;;;;;;0.22;0.22;;;;;;;;;;4973932;28;20035;-62
2023/09/30 08:28:10;;;;;;;0.20;0.20;;;;;;;;;;4973157;28;20458;-64
2023/09/30 08:30:36;;;;;;;0.20;0.20;;;;;;;;;;4972312;28;20038;-63
2023/09/30 08:33:03;;;;;;;0.20;0.20;;;;;;;;;;4971269;28;20117;-63
2023/09/30 08:35:28;;;;;;;0.20;0.20;;;;;;;;;;4976857;28;20556;-63
2023/09/30 08:37:54;;;;;;;0.20;0.20;;;;;;;;;;4974748;28;20065;-63
2023/09/30 08:40:22;;;;;;;0.20;0.20;;;;;;;;;;4974183;28;20042;-63
2023/09/30 08:42:51;;;;;;;0.20;0.20;;;;;;;;;;4977707;28;20559;-65
2023/09/30 08:45:17;;;;;;;0.20;0.20;;;;;;;;;;4974560;28;20633;-65
2023/09/30 08:47:42;;;;;;;0.20;0.20;;;;;;;;;;4967710;28;20038;-62
2023/09/30 08:50:10;;;;;;;0.20;0.20;;;;;;;;;;4968881;28;20082;-65
2023/09/30 08:52:35;;;;;;;0.20;0.20;;;;;;;;;;4974215;28;20027;-63
2023/09/30 08:55:01;;;;;;;0.20;0.20;;;;;;;;;;4975290;28;20120;-64
2023/09/30 08:57:27;;;;;;;0.20;0.20;;;;;;;;;;4974316;28;20097;-62
2023/09/30 08:59:53;;;;;;;0.20;0.20;;;;;;;;;;4966435;28;20042;-62
2023/09/30 09:02:18;;;;;;;0.20;0.20;;;;;;;;;;4968820;28;20109;-63
2023/09/30 09:04:45;;;;;;;0.20;0.20;;;;;;;;;;4970689;28;20117;-62
2023/09/30 09:07:10;;;;;;;0.20;0.20;;;;;;;;;;4968295;28;20070;-63
2023/09/30 09:09:36;;;;;;;0.20;0.20;;;;;;;;;;4970579;28;20066;-62
2023/09/30 09:12:02;;;;;;;0.20;0.20;;;;;;;;;;4970984;28;20030;-65
2023/09/30 09:14:38;;;;;;;0.20;0.20;;;;;;;;;;4971411;28;20037;-63
2023/09/30 09:17:04;;;;;;;0.20;0.20;;;;;;;;;;4972775;28;20386;-62
2023/09/30 09:19:30;;;;;;;0.20;0.20;;;;;;;;;;4968540;28;20059;-62
2023/09/30 09:21:59;;;;;;;0.13;0.13;;;;;;;;;;4968496;28;20595;-63
2023/09/30 09:24:31;;;;;;;0.20;0.20;;;;;;;;;;4964998;28;20134;-64
2023/09/30 09:27:06;;;;;;;0.20;0.20;;;;;;;;;;4963607;28;20178;-64
2023/09/30 09:29:32;;;;;;;0.20;0.20;;;;;;;;;;4961270;28;20034;-63
2023/09/30 09:32:08;;;;;;;0.20;0.20;;;;;;;;;;4974170;28;20046;-63
2023/09/30 09:34:33;;;;;;;0.20;0.20;;;;;;;;;;4967457;28;20035;-62
2023/09/30 09:36:58;;;;;;;0.10;0.10;;;;;;;;;;4964730;28;20269;-63
2023/09/30 09:39:34;;;;;;;0.20;0.20;;;;;;;;;;4967953;28;20041;-63
2023/09/30 09:42:01;;;;;;;0.20;0.20;;;;;;;;;;4966117;28;20058;-63
2023/09/30 09:44:26;;;;;;;0.10;0.10;;;;;;;;;;4966618;28;20092;-63
2023/09/30 09:46:52;;;;;;;0.10;0.10;;;;;;;;;;4968055;28;20595;-63
2023/09/30 09:49:18;;;;;;;0.20;0.20;;;;;;;;;;4969047;28;20404;-62
2023/09/30 09:51:45;;;;;;;0.15;0.15;;;;;;;;;;4968423;28;20038;-65
2023/09/30 09:54:11;;;;;;;0.10;0.10;;;;;;;;;;4966095;28;20038;-63
2023/09/30 09:56:36;;;;;;;0.10;0.10;;;;;;;;;;4963622;28;20547;-63
2023/09/30 09:59:04;;;;;;;0.13;0.13;;;;;;;;;;4962898;28;20261;-63
2023/09/30 10:01:30;;;;;;;0.10;0.10;;;;;;;;;;4967425;28;20196;-63
2023/09/30 10:03:55;;;;;;;0.10;0.10;;;;;;;;;;4967206;28;20050;-62
2023/09/30 10:06:22;;;;;;;0.10;0.10;;;;;;;;;;4966248;28;20034;-63
2023/09/30 10:08:50;;;;;;;0.10;0.10;;;;;;;;;;4963360;28;20034;-62
2023/09/30 10:11:19;;;;;;;0.10;0.10;;;;;;;;;;4966126;28;20244;-62
2023/09/30 10:13:57;;;;;;;0.20;0.20;;;;;;;;;;4969677;28;20129;-64
2023/09/30 10:16:34;;;;;;;0.10;0.10;;;;;;;;;;4969833;28;20461;-63
2023/09/30 10:19:15;;;;;;;0.10;0.10;;;;;;;;;;4970664;28;20649;-64
2023/09/30 10:22:00;;;;;;;0.10;0.10;;;;;;;;;;4974887;28;20035;-66
2023/09/30 10:24:27;;;;;;;0.10;0.10;;;;;;;;;;4966366;28;20039;-62
2023/09/30 10:26:52;;;;;;;;;;;;;;;;;;4970977;28;20030;-64
2023/09/30 10:29:18;;;;;;;0.10;0.10;;;;;;;;;;4972213;28;19920;-63
2023/09/30 10:31:50;;;;;;;0.20;0.20;;;;;;;;;;4971841;28;20382;-64
2023/09/30 10:34:19;;;;;;;0.10;0.10;;;;;;;;;;4971371;28;20039;-63
2023/09/30 10:36:45;;;;;;;0.10;0.10;;;;;;;;;;4973166;28;20042;-67
2023/09/30 10:39:17;;;;;;;0.10;0.10;;;;;;;;;;4967590;28;20037;-65
2023/09/30 10:41:47;;;;;;;0.10;0.10;;;;;;;;;;4971263;28;20450;-65
2023/09/30 10:44:29;;;;;;;0.17;0.17;;;;;;;;;;4955971;28;20484;-62
2023/09/30 10:46:59;;;;;;;0.10;0.10;;;;;;;;;;4966264;28;20059;-62
2023/09/30 10:49:24;;;;;;;0.10;0.10;;;;;;;;;;4968409;28;20037;-65
2023/09/30 10:51:53;;;;;;;0.10;0.10;;;;;;;;;;4967003;28;20033;-64
2023/09/30 10:54:23;;;;;;;0.10;0.10;;;;;;;;;;4968327;28;20039;-62
2023/09/30 10:56:48;;;;;;;0.10;0.10;;;;;;;;;;4968594;28;20084;-64
2023/09/30 10:59:22;;;;;;;0.10;0.10;;;;;;;;;;4972004;28;20030;-62
2023/09/30 11:01:47;;;;;;;0.10;0.10;;;;;;;;;;4969257;28;20035;-64
2023/09/30 11:04:13;;;;;;;0.10;0.10;;;;;;;;;;4970371;28;20431;-63
2023/09/30 11:06:42;;;;;;;0.10;0.10;;;;;;;;;;4967186;28;20041;-64
2023/09/30 11:09:13;;;;;;;0.10;0.10;;;;;;;;;;4966567;28;20080;-65
2023/09/30 11:11:43;;;;;;;0.10;0.10;;;;;;;;;;4969930;28;20085;-65
2023/09/30 11:14:23;;;;;;;0.10;0.10;;;;;;;;;;4970299;28;20031;-63
2023/09/30 11:16:50;;;;;;;0.10;0.10;;;;;;;;;;4974012;28;20035;-63
2023/09/30 11:19:16;;;;;;;0.10;0.10;;;;;;;;;;4968162;28;20117;-64
2023/09/30 11:21:43;;;;;;;0.10;0.10;;;;;;;;;;4973240;28;20453;-62
2023/09/30 11:24:09;;;;;;;0.00;0.00;;;;;;;;;;4974301;28;20031;-63
2023/09/30 11:26:34;;;;;;;0.00;0.00;;;;;;;;;;4970729;28;20045;-64
2023/09/30 11:29:13;;;;;;;0.00;0.00;;;;;;;;;;4971332;28;20084;-63
2023/09/30 11:31:39;;;;;;;0.00;0.00;;;;;;;;;;4968913;28;20555;-63
2023/09/30 11:34:07;;;;;;;0.00;0.00;;;;;;;;;;4969618;28;20037;-64
2023/09/30 11:36:34;;;;;;;0.00;0.00;;;;;;;;;;4970299;28;20696;-64
2023/09/30 11:39:03;;;;;;;0.00;0.00;;;;;;;;;;4966840;28;20026;-65
2023/09/30 11:41:35;;;;;;;0.00;0.00;;;;;;;;;;4969001;28;20461;-64
2023/09/30 11:44:07;;;;;;;0.00;0.00;;;;;;;;;;4959575;28;20027;-64
2023/09/30 11:46:47;;;;;;;0.00;0.00;;;;;;;;;;4963187;28;20405;-64
2023/09/30 11:49:13;;;;;;;0.00;0.00;;;;;;;;;;4964493;28;20027;-64
2023/09/30 11:51:46;;;;;;;0.00;0.00;;;;;;;;;;4966609;28;20073;-66
2023/09/30 11:54:11;;;;;;;0.00;0.00;;;;;;;;;;4967231;28;20555;-64
2023/09/30 11:56:37;;;;;;;0.00;0.00;;;;;;;;;;4964329;28;20031;-64
2023/09/30 11:59:04;;;;;;;0.00;0.00;;;;;;;;;;4963590;28;20066;-63
2023/09/30 12:01:30;;;;;;;;;;;;;;;;;;4970644;28;20035;-64
2023/09/30 12:03:56;;;;;;;0.00;0.00;;;;;;;;;;4964719;28;19918;-65
2023/09/30 12:06:21;;;;;;;0.00;0.00;;;;;;;;;;4966377;28;20535;-64
2023/09/30 12:08:46;;;;;;;0.00;0.00;;;;;;;;;;4963890;28;20351;-65
2023/09/30 12:11:14;;;;;;;0.00;0.00;;;;;;;;;;4962637;28;20419;-63
2023/09/30 12:13:40;;;;;;;0.00;0.00;;;;;;;;;;4968703;28;20098;-62
2023/09/30 12:16:05;;;;;;;0.00;0.00;;;;;;;;;;4969010;28;20026;-61
2023/09/30 12:18:30;;;;;;;0.00;0.00;;;;;;;;;;4966600;28;20138;-63
2023/09/30 12:20:56;;;;;;;0.00;0.00;;;;;;;;;;4969137;28;20365;-63
2023/09/30 12:23:21;;;;;;;0.00;0.00;;;;;;;;;;4969258;28;20039;-61
2023/09/30 12:25:47;;;;;;;0.00;0.00;;;;;;;;;;4969156;28;20121;-63
2023/09/30 12:28:14;;;;;;;0.00;0.00;;;;;;;;;;4966610;28;20722;-63
2023/09/30 12:30:40;;;;;;;0.00;0.00;;;;;;;;;;4945366;28;20477;-63
2023/09/30 12:33:06;;;;;;;0.00;0.00;;;;;;;;;;4971498;28;20131;-62
2023/09/30 12:35:32;;;;;;;0.00;0.00;;;;;;;;;;4966517;28;20038;-62
2023/09/30 12:37:57;;;;;;;0.00;0.00;;;;;;;;;;4971391;28;20037;-63
2023/09/30 12:40:23;;;;;;;0.00;0.00;;;;;;;;;;4970502;28;20039;-62
2023/09/30 12:42:48;;;;;;;0.00;0.00;;;;;;;;;;4966341;28;20066;-63
2023/09/30 12:45:14;;;;;;;0.00;0.00;;;;;;;;;;4968084;28;20031;-63
2023/09/30 12:47:39;;;;;;;0.00;0.00;;;;;;;;;;4968591;28;20125;-63
2023/09/30 12:50:05;;;;;;;0.00;0.00;;;;;;;;;;4970356;28;20041;-63
2023/09/30 12:52:32;;;;;;;0.00;0.00;;;;;;;;;;4971603;28;20031;-64
2023/09/30 12:54:57;;;;;;;0.00;0.00;;;;;;;;;;4973393;28;20513;-62
2023/09/30 12:57:22;;;;;;;0.00;0.00;;;;;;;;;;4968947;28;20058;-65
2023/09/30 12:59:49;;;;;;;0.00;0.00;;;;;;;;;;4963996;28;20022;-63
2023/09/30 13:02:15;;;;;;;0.00;0.00;;;;;;;;;;4964558;28;20046;-63
2023/09/30 13:04:43;;;;;;;0.00;0.00;;;;;;;;;;4968038;28;20659;-63
2023/09/30 13:07:11;;;;;;;0.00;0.00;;;;;;;;;;4972690;28;20031;-63
2023/09/30 13:09:38;;;;;;;0.00;0.00;;;;;;;;;;4971257;28;20039;-64
2023/09/30 13:12:03;;;;;;;0.00;0.00;;;;;;;;;;4970656;28;20050;-63
2023/09/30 13:14:28;;;;;;;0.00;0.00;;;;;;;;;;4972909;28;20043;-63
2023/09/30 13:16:54;;;;;;;0.00;0.00;;;;;;;;;;4968534;28;20031;-62
2023/09/30 13:19:21;;;;;;;0.00;0.00;;;;;;;;;;4965905;28;20069;-63
2023/09/30 13:21:47;;;;;;;0.00;0.00;;;;;;;;;;4964756;28;20038;-64
2023/09/30 13:24:12;;;;;;;0.00;0.00;;;;;;;;;;4962451;28;20374;-63
2023/09/30 13:26:38;;;;;;;0.00;0.00;;;;;;;;;;4963628;28;20132;-63
2023/09/30 13:29:05;;;;;;;0.00;0.00;;;;;;;;;;4965098;28;20038;-63
2023/09/30 13:31:30;;;;;;;0.00;0.00;;;;;;;;;;4969081;28;20035;-65
2023/09/30 13:33:56;;;;;;;0.00;0.00;;;;;;;;;;4964043;28;20502;-62
2023/09/30 13:36:21;;;;;;;0.00;0.00;;;;;;;;;;4967996;28;20101;-63
2023/09/30 13:38:46;;;;;;;0.00;0.00;;;;;;;;;;4969728;28;21071;-62
2023/09/30 13:41:12;;;;;;;;;;;;;;;;;;4969842;28;20030;-64
2023/09/30 13:43:39;;;;;;;0.00;0.00;;;;;;;;;;4966338;28;20069;-64
2023/09/30 13:46:06;;;;;;;0.00;0.00;;;;;;;;;;4969579;28;20042;-63
2023/09/30 13:48:32;;;;;;;0.00;0.00;;;;;;;;;;4972628;28;20049;-63
2023/09/30 13:51:07;;;;;;;0.00;0.00;;;;;;;;;;4967951;28;20061;-64
2023/09/30 13:53:33;;;;;;;0.00;0.00;;;;;;;;;;4959419;28;20066;-63
2023/09/30 13:55:58;;;;;;;;;;;;;;;;;;4959107;28;20621;-65
2023/09/30 13:58:24;;;;;;;0.00;0.00;;;;;;;;;;4960592;28;19918;-65
2023/09/30 14:00:52;;;;;;;0.00;0.00;;;;;;;;;;4958122;28;20043;-63
2023/09/30 14:03:18;;;;;;;0.00;0.00;;;;;;;;;;4955635;28;20142;-63
2023/09/30 14:05:45;;;;;;;0.00;0.00;;;;;;;;;;4961335;28;20504;-63
2023/09/30 14:08:10;;;;;;;0.00;0.00;;;;;;;;;;4957590;28;20014;-63
2023/09/30 14:10:36;;;;;;;0.00;0.00;;;;;;;;;;4972320;28;20037;-63
2023/09/30 14:13:01;;;;;;;0.00;0.00;;;;;;;;;;4965333;28;20031;-65
2023/09/30 14:15:28;;;;;;;0.00;0.00;;;;;;;;;;4966084;28;20082;-64
2023/09/30 14:17:55;;;;;;;0.00;0.00;;;;;;;;;;4964058;28;20023;-65
2023/09/30 14:20:20;;;;;;;0.00;0.00;;;;;;;;;;4960602;28;20070;-64
2023/09/30 14:22:46;;;;;;;0.00;0.00;;;;;;;;;;4967014;28;20034;-64
2023/09/30 14:25:11;;;;;;;0.00;0.00;;;;;;;;;;4957770;28;20488;-64
2023/09/30 14:27:37;;;;;;;0.00;0.00;;;;;;;;;;4968250;28;20497;-63
2023/09/30 14:30:04;;;;;;;0.00;0.00;;;;;;;;;;4959829;28;20095;-63
2023/09/30 14:32:29;;;;;;;0.00;0.00;;;;;;;;;;4959122;28;20118;-63
2023/09/30 14:34:56;;;;;;;0.00;0.00;;;;;;;;;;4967973;28;20173;-65
2023/09/30 14:37:21;;;;;;;0.00;0.00;;;;;;;;;;4959759;28;20073;-63
2023/09/30 14:39:47;;;;;;;0.00;0.00;;;;;;;;;;4966747;28;20396;-63
2023/09/30 14:42:12;;;;;;;0.00;0.00;;;;;;;;;;4966079;28;20151;-64